sensor_id;sensor_type;location;lat;lon;timestamp;pressure;altitude;pressure_sealevel;temperature;humidity
75996;BME280;64681;49.738;9.004;2023-02-22T00:00:43;99474.81;;;3.84;80.30
75996;BME280;64681;49.738;9.004;2023-02-22T00:03:18;99472.47;;;3.58;81.90
75996;BME280;64681;49.738;9.004;2023-02-22T00:05:53;99466.50;;;3.47;82.36
75996;BME280;64681;49.738;9.004;2023-02-22T00:08:21;99465.50;;;3.43;82.96
75996;BME280;64681;49.738;9.004;2023-02-22T00:10:47;99468.44;;;3.07;85.03
75996;BME280;64681;49.738;9.004;2023-02-22T00:13:18;99465.91;;;3.26;83.77
75996;BME280;64681;49.738;9.004;2023-02-22T00:15:44;99468.34;;;3.47;81.97
75996;BME280;64681;49.738;9.004;2023-02-22T00:18:15;99453.47;;;3.32;82.01
75996;BME280;64681;49.738;9.004;2023-02-22T00:20:41;99469.16;;;3.47;80.84
75996;BME280;64681;49.738;9.004;2023-02-22T00:23:13;99461.75;;;3.20;81.67
75996;BME280;64681;49.738;9.004;2023-02-22T00:25:39;99466.47;;;3.23;81.66
75996;BME280;64681;49.738;9.004;2023-02-22T00:28:04;99462.44;;;3.31;81.24
75996;BME280;64681;49.738;9.004;2023-02-22T00:30:31;99459.19;;;3.39;80.14
75996;BME280;64681;49.738;9.004;2023-02-22T00:32:58;99460.69;;;3.21;81.28
75996;BME280;64681;49.738;9.004;2023-02-22T00:35:25;99462.44;;;3.31;80.69
75996;BME280;64681;49.738;9.004;2023-02-22T00:37:55;99447.22;;;3.23;81.22
75996;BME280;64681;49.738;9.004;2023-02-22T00:40:26;99454.97;;;3.38;80.91
75996;BME280;64681;49.738;9.004;2023-02-22T00:42:55;99454.41;;;3.41;80.26
75996;BME280;64681;49.738;9.004;2023-02-22T00:45:23;99450.22;;;3.40;80.21
75996;BME280;64681;49.738;9.004;2023-02-22T00:47:52;99448.13;;;3.37;80.29
75996;BME280;64681;49.738;9.004;2023-02-22T00:50:22;99447.63;;;3.35;80.02
75996;BME280;64681;49.738;9.004;2023-02-22T00:52:49;99452.94;;;3.30;80.05
75996;BME280;64681;49.738;9.004;2023-02-22T00:55:18;99444.06;;;3.21;80.71
75996;BME280;64681;49.738;9.004;2023-02-22T00:57:44;99448.22;;;3.27;80.13
75996;BME280;64681;49.738;9.004;2023-02-22T01:00:16;99440.34;;;3.22;80.38
75996;BME280;64681;49.738;9.004;2023-02-22T01:02:42;99444.00;;;3.26;79.69
75996;BME280;64681;49.738;9.004;2023-02-22T01:05:10;99439.84;;;3.20;80.12
75996;BME280;64681;49.738;9.004;2023-02-22T01:07:41;99440.19;;;3.13;80.61
75996;BME280;64681;49.738;9.004;2023-02-22T01:10:08;99429.88;;;3.11;79.78
75996;BME280;64681;49.738;9.004;2023-02-22T01:12:35;99427.81;;;3.08;79.87
75996;BME280;64681;49.738;9.004;2023-02-22T01:15:02;99422.91;;;2.96;79.87
75996;BME280;64681;49.738;9.004;2023-02-22T01:17:28;99411.03;;;2.64;82.12
75996;BME280;64681;49.738;9.004;2023-02-22T01:19:55;99423.84;;;2.76;81.91
75996;BME280;64681;49.738;9.004;2023-02-22T01:22:21;99410.38;;;2.83;81.20
75996;BME280;64681;49.738;9.004;2023-02-22T01:24:48;99419.22;;;2.97;80.43
75996;BME280;64681;49.738;9.004;2023-02-22T01:27:14;99420.44;;;3.05;80.01
75996;BME280;64681;49.738;9.004;2023-02-22T01:29:40;99406.50;;;2.99;79.72
75996;BME280;64681;49.738;9.004;2023-02-22T01:32:06;99405.50;;;2.95;79.64
75996;BME280;64681;49.738;9.004;2023-02-22T01:34:32;99401.81;;;2.96;79.43
75996;BME280;64681;49.738;9.004;2023-02-22T01:36:59;99404.72;;;2.95;79.75
75996;BME280;64681;49.738;9.004;2023-02-22T01:39:26;99405.28;;;2.92;79.27
75996;BME280;64681;49.738;9.004;2023-02-22T01:41:53;99400.72;;;2.68;79.64
75996;BME280;64681;49.738;9.004;2023-02-22T01:44:28;99396.19;;;2.74;79.72
75996;BME280;64681;49.738;9.004;2023-02-22T01:46:56;99394.50;;;2.88;79.13
75996;BME280;64681;49.738;9.004;2023-02-22T01:49:30;99393.75;;;2.82;79.46
75996;BME280;64681;49.738;9.004;2023-02-22T01:52:03;99390.16;;;2.68;80.28
75996;BME280;64681;49.738;9.004;2023-02-22T01:54:37;99379.97;;;2.56;79.73
75996;BME280;64681;49.738;9.004;2023-02-22T01:57:23;99389.56;;;2.42;80.89
75996;BME280;64681;49.738;9.004;2023-02-22T01:59:58;99392.41;;;2.50;81.03
75996;BME280;64681;49.738;9.004;2023-02-22T02:02:26;99383.44;;;2.57;80.69
75996;BME280;64681;49.738;9.004;2023-02-22T02:04:53;99374.16;;;2.59;80.01
75996;BME280;64681;49.738;9.004;2023-02-22T02:07:22;99382.91;;;2.49;81.13
75996;BME280;64681;49.738;9.004;2023-02-22T02:12:22;99378.06;;;2.67;79.97
75996;BME280;64681;49.738;9.004;2023-02-22T02:14:47;99373.13;;;2.55;80.20
75996;BME280;64681;49.738;9.004;2023-02-22T02:17:18;99381.03;;;2.60;80.36
75996;BME280;64681;49.738;9.004;2023-02-22T02:26:00;99374.78;;;2.80;79.76
75996;BME280;64681;49.738;9.004;2023-02-22T02:31:35;99380.31;;;2.79;79.37
75996;BME280;64681;49.738;9.004;2023-02-22T02:34:55;99374.28;;;2.78;79.14
75996;BME280;64681;49.738;9.004;2023-02-22T02:42:42;99353.19;;;2.44;80.89
75996;BME280;64681;49.738;9.004;2023-02-22T02:45:16;99353.38;;;2.52;80.71
75996;BME280;64681;49.738;9.004;2023-02-22T02:47:55;99354.78;;;2.74;80.25
75996;BME280;64681;49.738;9.004;2023-02-22T02:50:31;99355.06;;;2.73;80.08
75996;BME280;64681;49.738;9.004;2023-02-22T02:53:02;99349.19;;;2.51;80.81
75996;BME280;64681;49.738;9.004;2023-02-22T02:55:30;99343.38;;;2.55;80.19
75996;BME280;64681;49.738;9.004;2023-02-22T02:57:57;99339.69;;;2.50;80.43
75996;BME280;64681;49.738;9.004;2023-02-22T03:00:30;99346.47;;;2.62;80.27
75996;BME280;64681;49.738;9.004;2023-02-22T03:08:46;99334.34;;;2.26;80.94
75996;BME280;64681;49.738;9.004;2023-02-22T03:11:30;99318.59;;;2.21;81.22
75996;BME280;64681;49.738;9.004;2023-02-22T03:14:25;99307.94;;;2.36;80.67
75996;BME280;64681;49.738;9.004;2023-02-22T03:20:11;99312.50;;;2.26;80.50
75996;BME280;64681;49.738;9.004;2023-02-22T03:22:49;99305.59;;;2.30;80.48
75996;BME280;64681;49.738;9.004;2023-02-22T03:25:36;99292.63;;;2.04;81.72
75996;BME280;64681;49.738;9.004;2023-02-22T03:28:09;99314.28;;;2.30;80.74
75996;BME280;64681;49.738;9.004;2023-02-22T03:31:22;99302.09;;;2.40;80.96
75996;BME280;64681;49.738;9.004;2023-02-22T03:34:10;99310.69;;;2.50;80.14
75996;BME280;64681;49.738;9.004;2023-02-22T03:36:21;99312.84;;;2.48;80.07
75996;BME280;64681;49.738;9.004;2023-02-22T03:38:51;99304.59;;;2.26;80.26
75996;BME280;64681;49.738;9.004;2023-02-22T03:41:22;99302.16;;;2.34;79.67
75996;BME280;64681;49.738;9.004;2023-02-22T03:44:01;99307.13;;;2.36;79.28
75996;BME280;64681;49.738;9.004;2023-02-22T03:46:31;99306.31;;;2.41;79.03
75996;BME280;64681;49.738;9.004;2023-02-22T03:49:09;99305.84;;;2.33;79.19
75996;BME280;64681;49.738;9.004;2023-02-22T03:51:36;99298.81;;;2.24;79.29
75996;BME280;64681;49.738;9.004;2023-02-22T03:54:05;99310.94;;;2.19;79.43
75996;BME280;64681;49.738;9.004;2023-02-22T03:56:46;99299.41;;;2.15;79.86
75996;BME280;64681;49.738;9.004;2023-02-22T03:59:15;99305.41;;;2.21;79.64
75996;BME280;64681;49.738;9.004;2023-02-22T04:01:41;99303.94;;;2.04;79.61
75996;BME280;64681;49.738;9.004;2023-02-22T04:04:06;99298.41;;;2.06;80.00
75996;BME280;64681;49.738;9.004;2023-02-22T04:06:32;99304.16;;;2.13;79.51
75996;BME280;64681;49.738;9.004;2023-02-22T04:08:57;99309.34;;;2.24;78.92
75996;BME280;64681;49.738;9.004;2023-02-22T04:11:23;99300.75;;;2.13;79.46
75996;BME280;64681;49.738;9.004;2023-02-22T04:13:49;99300.03;;;2.02;79.55
75996;BME280;64681;49.738;9.004;2023-02-22T04:16:14;99288.72;;;1.96;79.46
75996;BME280;64681;49.738;9.004;2023-02-22T04:18:40;99297.50;;;1.81;80.54
75996;BME280;64681;49.738;9.004;2023-02-22T04:21:06;99297.50;;;1.81;80.66
75996;BME280;64681;49.738;9.004;2023-02-22T04:23:33;99299.25;;;1.96;79.88
75996;BME280;64681;49.738;9.004;2023-02-22T04:25:59;99286.63;;;1.93;79.33
75996;BME280;64681;49.738;9.004;2023-02-22T04:28:24;99285.09;;;1.87;80.14
75996;BME280;64681;49.738;9.004;2023-02-22T04:30:50;99286.44;;;1.84;79.71
75996;BME280;64681;49.738;9.004;2023-02-22T04:33:15;99298.22;;;1.92;79.89
75996;BME280;64681;49.738;9.004;2023-02-22T04:35:41;99292.78;;;1.78;80.30
75996;BME280;64681;49.738;9.004;2023-02-22T04:38:09;99284.44;;;1.66;81.53
75996;BME280;64681;49.738;9.004;2023-02-22T04:40:34;99284.19;;;1.62;81.50
75996;BME280;64681;49.738;9.004;2023-02-22T04:43:00;99287.88;;;1.66;81.80
75996;BME280;64681;49.738;9.004;2023-02-22T04:45:26;99287.25;;;1.80;81.53
75996;BME280;64681;49.738;9.004;2023-02-22T04:47:51;99277.19;;;1.87;80.36
75996;BME280;64681;49.738;9.004;2023-02-22T04:50:17;99280.63;;;1.87;80.14
75996;BME280;64681;49.738;9.004;2023-02-22T04:52:43;99274.31;;;1.83;79.79
75996;BME280;64681;49.738;9.004;2023-02-22T04:55:10;99288.53;;;1.87;79.86
75996;BME280;64681;49.738;9.004;2023-02-22T04:57:36;99274.09;;;1.80;80.04
75996;BME280;64681;49.738;9.004;2023-02-22T05:00:03;99267.53;;;1.77;79.64
75996;BME280;64681;49.738;9.004;2023-02-22T05:02:30;99284.03;;;1.88;79.46
75996;BME280;64681;49.738;9.004;2023-02-22T05:04:55;99269.88;;;1.79;79.33
75996;BME280;64681;49.738;9.004;2023-02-22T05:07:21;99280.88;;;1.91;79.10
75996;BME280;64681;49.738;9.004;2023-02-22T05:09:46;99276.44;;;1.81;79.62
75996;BME280;64681;49.738;9.004;2023-02-22T05:12:12;99278.91;;;1.67;79.91
75996;BME280;64681;49.738;9.004;2023-02-22T05:14:38;99280.66;;;1.82;79.72
75996;BME280;64681;49.738;9.004;2023-02-22T05:17:03;99275.09;;;1.89;79.86
75996;BME280;64681;49.738;9.004;2023-02-22T05:19:29;99288.25;;;1.89;79.99
75996;BME280;64681;49.738;9.004;2023-02-22T05:21:55;99276.84;;;1.99;78.87
75996;BME280;64681;49.738;9.004;2023-02-22T05:24:21;99262.66;;;1.55;80.16
75996;BME280;64681;49.738;9.004;2023-02-22T05:26:46;99277.81;;;1.73;79.62
75996;BME280;64681;49.738;9.004;2023-02-22T05:29:12;99280.16;;;1.75;79.82
75996;BME280;64681;49.738;9.004;2023-02-22T05:31:38;99278.88;;;1.72;80.11
75996;BME280;64681;49.738;9.004;2023-02-22T05:34:06;99279.94;;;1.71;80.52
75996;BME280;64681;49.738;9.004;2023-02-22T05:36:31;99278.09;;;1.72;80.82
75996;BME280;64681;49.738;9.004;2023-02-22T05:38:57;99271.22;;;1.76;80.81
75996;BME280;64681;49.738;9.004;2023-02-22T05:41:22;99276.91;;;1.94;80.34
75996;BME280;64681;49.738;9.004;2023-02-22T05:43:48;99274.03;;;1.90;80.68
75996;BME280;64681;49.738;9.004;2023-02-22T05:46:14;99268.47;;;1.92;79.78
75996;BME280;64681;49.738;9.004;2023-02-22T05:48:39;99273.72;;;1.97;79.81
75996;BME280;64681;49.738;9.004;2023-02-22T05:51:06;99271.84;;;2.02;79.70
75996;BME280;64681;49.738;9.004;2023-02-22T05:53:31;99268.41;;;2.02;80.00
75996;BME280;64681;49.738;9.004;2023-02-22T05:55:57;99272.78;;;1.77;80.24
75996;BME280;64681;49.738;9.004;2023-02-22T05:58:23;99266.72;;;1.82;80.53
75996;BME280;64681;49.738;9.004;2023-02-22T06:00:48;99263.81;;;1.83;80.07
75996;BME280;64681;49.738;9.004;2023-02-22T06:03:23;99264.66;;;1.73;80.43
75996;BME280;64681;49.738;9.004;2023-02-22T06:05:49;99261.97;;;1.79;80.41
75996;BME280;64681;49.738;9.004;2023-02-22T06:08:14;99254.41;;;1.67;80.97
75996;BME280;64681;49.738;9.004;2023-02-22T06:10:40;99270.72;;;1.69;81.73
75996;BME280;64681;49.738;9.004;2023-02-22T06:13:06;99273.91;;;1.66;82.02
75996;BME280;64681;49.738;9.004;2023-02-22T06:15:32;99263.63;;;1.69;81.69
75996;BME280;64681;49.738;9.004;2023-02-22T06:17:58;99262.06;;;1.68;81.57
75996;BME280;64681;49.738;9.004;2023-02-22T06:20:25;99271.34;;;1.95;81.12
75996;BME280;64681;49.738;9.004;2023-02-22T06:22:54;99270.88;;;1.88;81.33
75996;BME280;64681;49.738;9.004;2023-02-22T06:25:23;99268.88;;;1.74;81.92
75996;BME280;64681;49.738;9.004;2023-02-22T06:27:50;99268.34;;;1.72;81.83
75996;BME280;64681;49.738;9.004;2023-02-22T06:30:18;99275.88;;;1.45;83.76
75996;BME280;64681;49.738;9.004;2023-02-22T06:32:43;99269.59;;;1.80;82.86
75996;BME280;64681;49.738;9.004;2023-02-22T06:35:09;99265.75;;;2.07;82.02
75996;BME280;64681;49.738;9.004;2023-02-22T06:37:35;99262.22;;;2.22;81.13
75996;BME280;64681;49.738;9.004;2023-02-22T06:40:00;99273.47;;;2.28;81.13
75996;BME280;64681;49.738;9.004;2023-02-22T06:42:26;99275.75;;;2.40;80.83
75996;BME280;64681;49.738;9.004;2023-02-22T06:44:51;99269.25;;;2.27;81.27
75996;BME280;64681;49.738;9.004;2023-02-22T06:47:17;99282.66;;;2.30;81.65
75996;BME280;64681;49.738;9.004;2023-02-22T06:49:43;99282.53;;;2.46;82.01
75996;BME280;64681;49.738;9.004;2023-02-22T06:52:08;99280.97;;;2.74;81.69
75996;BME280;64681;49.738;9.004;2023-02-22T06:54:37;99287.78;;;3.05;80.96
75996;BME280;64681;49.738;9.004;2023-02-22T06:57:03;99286.81;;;3.20;80.86
75996;BME280;64681;49.738;9.004;2023-02-22T06:59:28;99287.13;;;3.37;80.14
75996;BME280;64681;49.738;9.004;2023-02-22T07:01:56;99271.63;;;3.30;80.66
75996;BME280;64681;49.738;9.004;2023-02-22T07:04:23;99287.16;;;3.56;80.63
75996;BME280;64681;49.738;9.004;2023-02-22T07:06:49;99281.72;;;3.47;80.42
75996;BME280;64681;49.738;9.004;2023-02-22T07:09:16;99289.25;;;3.59;80.88
75996;BME280;64681;49.738;9.004;2023-02-22T07:11:42;99292.78;;;3.88;80.34
75996;BME280;64681;49.738;9.004;2023-02-22T07:14:08;99290.19;;;4.21;77.75
75996;BME280;64681;49.738;9.004;2023-02-22T07:16:34;99291.16;;;4.44;76.34
75996;BME280;64681;49.738;9.004;2023-02-22T07:19:01;99298.88;;;4.40;77.02
75996;BME280;64681;49.738;9.004;2023-02-22T07:21:29;99301.34;;;4.51;76.27
75996;BME280;64681;49.738;9.004;2023-02-22T07:23:57;99294.81;;;4.76;73.82
75996;BME280;64681;49.738;9.004;2023-02-22T07:26:24;99295.53;;;5.10;71.44
75996;BME280;64681;49.738;9.004;2023-02-22T07:28:50;99283.06;;;4.68;76.07
75996;BME280;64681;49.738;9.004;2023-02-22T07:31:16;99299.44;;;4.84;76.69
75996;BME280;64681;49.738;9.004;2023-02-22T07:33:45;99294.25;;;5.07;76.59
75996;BME280;64681;49.738;9.004;2023-02-22T07:36:11;99292.09;;;5.37;75.08
75996;BME280;64681;49.738;9.004;2023-02-22T07:38:39;99285.56;;;5.57;73.68
75996;BME280;64681;49.738;9.004;2023-02-22T07:41:05;99294.84;;;5.82;71.78
75996;BME280;64681;49.738;9.004;2023-02-22T07:43:31;99275.06;;;6.02;68.65
75996;BME280;64681;49.738;9.004;2023-02-22T07:45:59;99293.53;;;5.94;71.73
75996;BME280;64681;49.738;9.004;2023-02-22T07:48:29;99295.22;;;5.90;72.13
75996;BME280;64681;49.738;9.004;2023-02-22T07:50:56;99292.97;;;5.83;75.08
75996;BME280;64681;49.738;9.004;2023-02-22T07:53:27;99288.69;;;6.10;74.55
75996;BME280;64681;49.738;9.004;2023-02-22T07:55:59;99296.16;;;6.08;76.38
75996;BME280;64681;49.738;9.004;2023-02-22T07:58:29;99277.78;;;6.34;75.62
75996;BME280;64681;49.738;9.004;2023-02-22T08:00:55;99283.00;;;6.48;76.15
75996;BME280;64681;49.738;9.004;2023-02-22T08:03:23;99287.06;;;6.77;74.71
75996;BME280;64681;49.738;9.004;2023-02-22T08:05:54;99282.34;;;6.74;73.74
75996;BME280;64681;49.738;9.004;2023-02-22T08:08:21;99288.78;;;6.81;73.36
75996;BME280;64681;49.738;9.004;2023-02-22T08:10:49;99287.69;;;6.82;75.24
75996;BME280;64681;49.738;9.004;2023-02-22T08:13:14;99281.56;;;6.73;75.25
75996;BME280;64681;49.738;9.004;2023-02-22T08:15:41;99277.31;;;7.04;74.21
75996;BME280;64681;49.738;9.004;2023-02-22T08:18:11;99284.69;;;7.16;74.43
75996;BME280;64681;49.738;9.004;2023-02-22T08:20:40;99289.09;;;7.29;73.98
75996;BME280;64681;49.738;9.004;2023-02-22T08:23:06;99282.69;;;7.30;74.33
75996;BME280;64681;49.738;9.004;2023-02-22T08:25:32;99272.25;;;7.51;73.71
75996;BME280;64681;49.738;9.004;2023-02-22T08:28:01;99281.97;;;7.65;74.10
75996;BME280;64681;49.738;9.004;2023-02-22T08:30:32;99275.41;;;7.80;73.21
75996;BME280;64681;49.738;9.004;2023-02-22T08:32:59;99269.47;;;7.74;74.12
75996;BME280;64681;49.738;9.004;2023-02-22T08:35:27;99276.47;;;7.61;73.36
75996;BME280;64681;49.738;9.004;2023-02-22T08:37:57;99277.59;;;7.95;74.55
75996;BME280;64681;49.738;9.004;2023-02-22T08:40:26;99264.53;;;8.37;73.38
75996;BME280;64681;49.738;9.004;2023-02-22T08:42:52;99275.25;;;8.76;72.46
75996;BME280;64681;49.738;9.004;2023-02-22T08:45:18;99277.00;;;9.02;72.39
75996;BME280;64681;49.738;9.004;2023-02-22T08:47:44;99267.53;;;9.43;69.82
75996;BME280;64681;49.738;9.004;2023-02-22T08:50:20;99266.28;;;10.04;67.46
75996;BME280;64681;49.738;9.004;2023-02-22T08:52:46;99265.31;;;10.55;66.19
75996;BME280;64681;49.738;9.004;2023-02-22T08:55:13;99267.69;;;10.93;63.75
75996;BME280;64681;49.738;9.004;2023-02-22T08:57:39;99266.03;;;10.76;67.02
75996;BME280;64681;49.738;9.004;2023-02-22T09:00:08;99263.81;;;11.03;64.15
75996;BME280;64681;49.738;9.004;2023-02-22T09:02:34;99250.00;;;11.01;64.88
75996;BME280;64681;49.738;9.004;2023-02-22T09:04:59;99257.34;;;11.04;64.93
75996;BME280;64681;49.738;9.004;2023-02-22T09:07:25;99248.44;;;11.13;64.19
75996;BME280;64681;49.738;9.004;2023-02-22T09:09:51;99260.47;;;11.06;65.63
75996;BME280;64681;49.738;9.004;2023-02-22T09:12:16;99253.44;;;11.02;66.81
75996;BME280;64681;49.738;9.004;2023-02-22T09:14:42;99248.91;;;10.90;67.21
75996;BME280;64681;49.738;9.004;2023-02-22T09:17:07;99253.78;;;10.75;67.45
75996;BME280;64681;49.738;9.004;2023-02-22T09:19:33;99253.44;;;10.77;66.76
75996;BME280;64681;49.738;9.004;2023-02-22T09:21:58;99251.13;;;10.75;66.36
75996;BME280;64681;49.738;9.004;2023-02-22T09:24:26;99245.66;;;10.72;66.74
75996;BME280;64681;49.738;9.004;2023-02-22T09:26:51;99245.41;;;10.40;66.31
75996;BME280;64681;49.738;9.004;2023-02-22T09:29:23;99250.41;;;10.41;66.79
75996;BME280;64681;49.738;9.004;2023-02-22T09:31:51;99244.06;;;10.46;66.83
75996;BME280;64681;49.738;9.004;2023-02-22T09:34:19;99237.50;;;10.43;67.04
75996;BME280;64681;49.738;9.004;2023-02-22T09:36:46;99238.38;;;10.48;67.24
75996;BME280;64681;49.738;9.004;2023-02-22T09:39:16;99248.41;;;10.63;66.89
75996;BME280;64681;49.738;9.004;2023-02-22T09:46:56;99234.28;;;10.50;67.53
75996;BME280;64681;49.738;9.004;2023-02-22T09:52:00;99234.88;;;10.68;67.96
75996;BME280;64681;49.738;9.004;2023-02-22T09:54:51;99225.63;;;10.78;67.29
75996;BME280;64681;49.738;9.004;2023-02-22T09:57:27;99223.84;;;10.82;67.21
75996;BME280;64681;49.738;9.004;2023-02-22T10:05:43;99211.72;;;10.72;68.02
75996;BME280;64681;49.738;9.004;2023-02-22T10:08:16;99213.94;;;10.70;68.32
75996;BME280;64681;49.738;9.004;2023-02-22T10:17:07;99210.03;;;10.68;68.23
75996;BME280;64681;49.738;9.004;2023-02-22T10:25:03;99204.94;;;10.63;68.87
75996;BME280;64681;49.738;9.004;2023-02-22T10:30:37;99195.25;;;10.83;67.70
75996;BME280;64681;49.738;9.004;2023-02-22T10:33:19;99194.44;;;11.07;67.41
75996;BME280;64681;49.738;9.004;2023-02-22T10:35:45;99189.31;;;11.14;67.59
75996;BME280;64681;49.738;9.004;2023-02-22T10:38:24;99189.16;;;11.23;67.03
75996;BME280;64681;49.738;9.004;2023-02-22T10:40:58;99197.81;;;11.45;66.61
75996;BME280;64681;49.738;9.004;2023-02-22T10:43:26;99187.50;;;11.59;66.20
75996;BME280;64681;49.738;9.004;2023-02-22T10:45:56;99186.69;;;11.71;65.38
75996;BME280;64681;49.738;9.004;2023-02-22T10:48:26;99196.03;;;11.93;65.23
75996;BME280;64681;49.738;9.004;2023-02-22T10:50:58;99181.84;;;12.05;65.18
75996;BME280;64681;49.738;9.004;2023-02-22T10:53:27;99197.50;;;12.19;64.65
75996;BME280;64681;49.738;9.004;2023-02-22T10:58:59;99189.53;;;12.23;61.52
75996;BME280;64681;49.738;9.004;2023-02-22T11:04:04;99191.44;;;12.54;62.36
75996;BME280;64681;49.738;9.004;2023-02-22T11:06:34;99183.72;;;12.69;62.71
75996;BME280;64681;49.738;9.004;2023-02-22T11:09:12;99178.50;;;12.92;62.47
75996;BME280;64681;49.738;9.004;2023-02-22T11:11:41;99185.19;;;13.18;59.11
75996;BME280;64681;49.738;9.004;2023-02-22T11:14:08;99175.63;;;13.56;56.55
75996;BME280;64681;49.738;9.004;2023-02-22T11:16:50;99183.06;;;13.86;57.28
75996;BME280;64681;49.738;9.004;2023-02-22T11:19:21;99173.69;;;13.76;57.85
75996;BME280;64681;49.738;9.004;2023-02-22T11:22:18;99171.22;;;14.10;57.34
75996;BME280;64681;49.738;9.004;2023-02-22T11:25:07;99174.38;;;14.39;54.87
75996;BME280;64681;49.738;9.004;2023-02-22T11:27:44;99169.69;;;14.82;54.63
75996;BME280;64681;49.738;9.004;2023-02-22T11:32:43;99167.13;;;14.66;53.23
75996;BME280;64681;49.738;9.004;2023-02-22T11:35:35;99169.69;;;15.13;52.37
75996;BME280;64681;49.738;9.004;2023-02-22T11:40:40;99158.78;;;15.32;52.40
75996;BME280;64681;49.738;9.004;2023-02-22T11:43:18;99162.03;;;15.49;52.37
75996;BME280;64681;49.738;9.004;2023-02-22T11:46:17;99150.00;;;15.73;52.25
75996;BME280;64681;49.738;9.004;2023-02-22T11:49:04;99146.63;;;15.83;52.14
75996;BME280;64681;49.738;9.004;2023-02-22T11:52:04;99143.66;;;14.90;52.75
75996;BME280;64681;49.738;9.004;2023-02-22T11:57:37;99140.59;;;14.92;54.20
75996;BME280;64681;49.738;9.004;2023-02-22T12:03:11;99141.94;;;15.77;51.48
75996;BME280;64681;49.738;9.004;2023-02-22T12:13:55;99129.28;;;15.81;51.54
75996;BME280;64681;49.738;9.004;2023-02-22T12:21:33;99113.63;;;15.90;51.32
75996;BME280;64681;49.738;9.004;2023-02-22T12:24:29;99118.13;;;16.24;50.53
75996;BME280;64681;49.738;9.004;2023-02-22T12:27:19;99114.44;;;15.98;50.21
75996;BME280;64681;49.738;9.004;2023-02-22T12:32:58;99120.59;;;15.95;50.75
75996;BME280;64681;49.738;9.004;2023-02-22T12:35:32;99114.63;;;16.16;48.95
75996;BME280;64681;49.738;9.004;2023-02-22T12:43:40;99110.75;;;15.72;49.63
75996;BME280;64681;49.738;9.004;2023-02-22T12:46:41;99127.22;;;16.05;48.94
75996;BME280;64681;49.738;9.004;2023-02-22T12:49:29;99119.94;;;16.05;48.56
75996;BME280;64681;49.738;9.004;2023-02-22T12:57:33;99113.25;;;15.92;48.98
75996;BME280;64681;49.738;9.004;2023-02-22T13:00:11;99095.72;;;16.12;47.68
75996;BME280;64681;49.738;9.004;2023-02-22T13:05:40;99111.91;;;16.12;49.08
75996;BME280;64681;49.738;9.004;2023-02-22T13:12:06;99097.38;;;16.24;49.88
75996;BME280;64681;49.738;9.004;2023-02-22T13:17:09;99100.22;;;16.50;49.19
75996;BME280;64681;49.738;9.004;2023-02-22T13:22:39;99096.47;;;15.68;48.54
75996;BME280;64681;49.738;9.004;2023-02-22T13:25:31;99097.13;;;15.95;50.89
75996;BME280;64681;49.738;9.004;2023-02-22T13:28:21;99084.28;;;16.26;48.37
75996;BME280;64681;49.738;9.004;2023-02-22T13:36:49;99075.38;;;16.19;50.81
75996;BME280;64681;49.738;9.004;2023-02-22T13:50:31;99077.16;;;16.00;48.09
75996;BME280;64681;49.738;9.004;2023-02-22T13:53:02;99063.66;;;15.96;47.75
75996;BME280;64681;49.738;9.004;2023-02-22T13:55:33;99070.94;;;15.89;48.82
75996;BME280;64681;49.738;9.004;2023-02-22T13:58:09;99066.66;;;15.84;49.51
75996;BME280;64681;49.738;9.004;2023-02-22T14:10:56;99057.34;;;16.30;49.47
75996;BME280;64681;49.738;9.004;2023-02-22T14:13:23;99057.91;;;16.02;49.12
75996;BME280;64681;49.738;9.004;2023-02-22T14:18:36;99058.50;;;15.77;51.13
75996;BME280;64681;49.738;9.004;2023-02-22T14:21:18;99050.06;;;15.82;50.74
75996;BME280;64681;49.738;9.004;2023-02-22T14:23:55;99059.72;;;16.35;46.72
75996;BME280;64681;49.738;9.004;2023-02-22T14:32:17;99051.03;;;16.04;49.38
75996;BME280;64681;49.738;9.004;2023-02-22T14:34:59;99055.75;;;16.22;49.94
75996;BME280;64681;49.738;9.004;2023-02-22T14:37:33;99052.41;;;16.43;46.69
75996;BME280;64681;49.738;9.004;2023-02-22T14:40:22;99060.91;;;16.45;47.84
75996;BME280;64681;49.738;9.004;2023-02-22T14:43:13;99052.78;;;16.38;47.59
75996;BME280;64681;49.738;9.004;2023-02-22T14:45:54;99056.38;;;16.64;45.53
75996;BME280;64681;49.738;9.004;2023-02-22T14:48:29;99040.34;;;16.15;48.32
75996;BME280;64681;49.738;9.004;2023-02-22T14:51:19;99046.44;;;16.08;49.60
75996;BME280;64681;49.738;9.004;2023-02-22T14:54:05;99045.16;;;15.91;50.29
75996;BME280;64681;49.738;9.004;2023-02-22T14:56:55;99040.06;;;15.82;51.04
75996;BME280;64681;49.738;9.004;2023-02-22T14:59:26;99051.84;;;15.67;48.92
75996;BME280;64681;49.738;9.004;2023-02-22T15:02:08;99040.75;;;15.72;49.87
75996;BME280;64681;49.738;9.004;2023-02-22T15:04:38;99038.31;;;15.56;51.57
75996;BME280;64681;49.738;9.004;2023-02-22T15:07:29;99043.25;;;15.47;50.26
75996;BME280;64681;49.738;9.004;2023-02-22T15:13:02;99022.78;;;15.01;53.62
75996;BME280;64681;49.738;9.004;2023-02-22T15:15:37;99036.03;;;14.83;54.08
75996;BME280;64681;49.738;9.004;2023-02-22T15:18:14;99025.31;;;14.56;53.73
75996;BME280;64681;49.738;9.004;2023-02-22T15:20:41;99030.66;;;14.56;54.06
75996;BME280;64681;49.738;9.004;2023-02-22T15:23:07;99045.31;;;14.59;55.23
75996;BME280;64681;49.738;9.004;2023-02-22T15:25:33;99041.41;;;14.56;55.67
75996;BME280;64681;49.738;9.004;2023-02-22T15:28:03;99024.69;;;14.36;56.54
75996;BME280;64681;49.738;9.004;2023-02-22T15:30:32;99035.72;;;14.31;56.14
75996;BME280;64681;49.738;9.004;2023-02-22T15:33:10;99032.84;;;14.16;57.19
75996;BME280;64681;49.738;9.004;2023-02-22T15:35:36;99022.50;;;13.91;56.69
75996;BME280;64681;49.738;9.004;2023-02-22T15:40:37;99027.56;;;13.97;56.74
75996;BME280;64681;49.738;9.004;2023-02-22T15:43:19;99034.38;;;13.90;58.28
75996;BME280;64681;49.738;9.004;2023-02-22T15:45:50;99029.38;;;13.66;59.27
75996;BME280;64681;49.738;9.004;2023-02-22T15:48:16;99035.09;;;13.64;58.90
75996;BME280;64681;49.738;9.004;2023-02-22T15:51:08;99033.63;;;13.67;59.33
75996;BME280;64681;49.738;9.004;2023-02-22T15:53:43;99032.00;;;13.62;59.38
75996;BME280;64681;49.738;9.004;2023-02-22T15:56:14;99032.72;;;13.59;59.02
75996;BME280;64681;49.738;9.004;2023-02-22T15:58:44;99033.44;;;13.56;58.79